Time;durP1;ratioP1;P1;durP2;ratioP2;P2;SDS_P1;SDS_P2;PMS_P1;PMS_P2;Temp;Humidity;BMP_temperature;BMP_pressure;BME280_temperature;BME280_humidity;BME280_pressure;Samples;Min_cycle;Max_cycle;Signal;HPM_P1;HPM_P2
2022/03/27 00:01:09;;;;;;;16.42;11.13;;;;;;;5.15;82.00;102115.78;4904628;29;20127;-74
2022/03/27 00:03:34;;;;;;;17.95;11.10;;;;;;;5.17;81.59;102120.22;4907052;29;20036;-74
2022/03/27 00:06:00;;;;;;;17.23;11.30;;;;;;;5.12;81.06;102113.91;4904383;29;20645;-74
2022/03/27 00:08:25;;;;;;;19.33;13.27;;;;;;;5.10;81.31;102112.06;4906197;29;20047;-74
2022/03/27 00:13:35;;;;;;;20.42;12.73;;;;;;;5.08;81.07;102112.00;4903122;29;20044;-75
2022/03/27 00:16:00;;;;;;;22.27;11.75;;;;;;;5.04;81.37;102117.94;4905125;29;20092;-74
2022/03/27 00:18:25;;;;;;;18.10;12.77;;;;;;;4.98;81.85;102097.66;4906876;29;20039;-74
2022/03/27 00:20:52;;;;;;;13.38;8.63;;;;;;;4.96;81.04;102101.03;4903889;29;20079;-74
2022/03/27 00:23:17;;;;;;;15.93;10.05;;;;;;;4.96;81.22;102108.88;4905777;29;20040;-74
2022/03/27 00:25:45;;;;;;;16.90;11.32;;;;;;;4.91;81.57;102110.41;4903570;29;20086;-75
2022/03/27 00:28:11;;;;;;;18.27;11.68;;;;;;;4.92;82.43;102109.56;4906792;29;20503;-74
2022/03/27 00:30:38;;;;;;;16.42;10.45;;;;;;;4.97;82.71;102113.28;4903919;29;20044;-74
2022/03/27 00:33:03;;;;;;;17.02;10.75;;;;;;;4.91;82.46;102113.91;4905803;29;20047;-73
2022/03/27 00:35:28;;;;;;;18.52;11.52;;;;;;;4.88;82.71;102118.13;4905711;29;20036;-74
2022/03/27 00:37:54;;;;;;;20.08;12.38;;;;;;;4.93;82.96;102114.00;4904339;29;20041;-74
2022/03/27 00:40:19;;;;;;;15.93;10.13;;;;;;;4.90;82.58;102108.59;4906775;29;20036;-74
2022/03/27 00:42:45;;;;;;;19.98;10.23;;;;;;;4.86;82.51;102111.94;4899991;29;20336;-75
2022/03/27 00:45:10;;;;;;;14.75;9.77;;;;;;;4.77;81.92;102121.19;4905599;29;20040;-75
2022/03/27 00:47:35;;;;;;;14.70;9.80;;;;;;;4.74;81.81;102123.69;4905835;29;20047;-75
2022/03/27 00:50:01;;;;;;;15.15;10.40;;;;;;;4.71;82.21;102118.28;4904016;29;20180;-74
2022/03/27 00:52:26;;;;;;;14.23;10.00;;;;;;;4.69;81.98;102122.59;4906390;29;20032;-75
2022/03/27 00:54:51;;;;;;;14.70;9.38;;;;;;;4.64;82.30;102120.56;4904335;29;20052;-74
2022/03/27 00:57:17;;;;;;;15.25;9.75;;;;;;;4.60;82.21;102114.31;4905307;29;20032;-74
2022/03/27 00:59:42;;;;;;;12.15;8.55;;;;;;;4.58;81.81;102115.97;4905931;29;20040;-74
2022/03/27 01:02:07;;;;;;;16.42;11.23;;;;;;;4.56;82.03;102123.75;4907107;29;20044;-75
2022/03/27 01:04:34;;;;;;;14.30;8.80;;;;;;;4.53;81.72;102123.63;4910123;29;20036;-75
2022/03/27 01:06:59;;;;;;;13.70;9.43;;;;;;;4.48;82.06;102114.69;4908278;29;20044;-74
2022/03/27 01:09:36;;;;;;;15.15;10.55;;;;;;;4.43;83.18;102110.06;4908215;29;20574;-75
2022/03/27 01:12:22;;;;;;;17.42;11.30;;;;;;;4.42;83.61;102118.75;4904411;29;20071;-74
2022/03/27 01:14:48;;;;;;;16.88;11.32;;;;;;;4.39;83.14;102109.94;4904155;29;20123;-74
2022/03/27 01:17:18;;;;;;;13.27;8.82;;;;;;;4.36;82.14;102115.03;4908770;29;20067;-74
2022/03/27 01:19:46;;;;;;;14.23;9.95;;;;;;;4.32;81.60;102118.34;4909317;29;20558;-75
2022/03/27 01:22:13;;;;;;;15.00;10.20;;;;;;;4.22;81.86;102115.22;4903214;29;20526;-74
2022/03/27 01:24:39;;;;;;;13.88;9.45;;;;;;;4.11;82.43;102125.19;4907163;29;20127;-75
2022/03/27 01:27:05;;;;;;;13.75;9.15;;;;;;;4.04;83.23;102117.94;4908782;29;20044;-74
2022/03/27 01:29:30;;;;;;;15.98;10.38;;;;;;;4.00;83.43;102109.03;4903207;29;20531;-75
2022/03/27 01:31:56;;;;;;;12.25;8.73;;;;;;;3.96;82.83;102112.34;4906602;29;20036;-74
2022/03/27 01:34:22;;;;;;;13.73;8.85;;;;;;;3.83;82.95;102120.44;4908840;29;20153;-74
2022/03/27 01:36:47;;;;;;;13.98;8.98;;;;;;;3.77;83.53;102113.19;4908360;29;20584;-74
2022/03/27 01:39:15;;;;;;;14.68;9.57;;;;;;;3.81;83.38;102109.03;4907149;29;20036;-74
2022/03/27 01:41:42;;;;;;;15.00;9.13;;;;;;;3.82;83.05;102108.19;4909200;29;20495;-74
2022/03/27 01:44:10;;;;;;;14.40;9.20;;;;;;;3.83;83.15;102110.88;4907437;29;20061;-74
2022/03/27 01:46:38;;;;;;;13.60;8.98;;;;;;;3.82;83.23;102109.06;4907416;29;20586;-74
2022/03/27 01:49:06;;;;;;;15.13;9.50;;;;;;;3.80;83.24;102104.59;4909314;29;20071;-73
2022/03/27 01:51:32;;;;;;;16.17;9.52;;;;;;;3.81;83.22;102111.63;4906870;29;20080;-74
2022/03/27 01:53:58;;;;;;;15.38;9.82;;;;;;;3.79;83.50;102108.94;4904741;29;20480;-74
2022/03/27 01:56:23;;;;;;;13.68;8.77;;;;;;;3.82;83.35;102118.63;4908580;29;20036;-73
2022/03/27 01:58:49;;;;;;;14.88;9.65;;;;;;;3.81;83.46;102102.06;4906324;29;20035;-74
2022/03/27 02:01:16;;;;;;;13.23;9.00;;;;;;;3.80;82.66;102110.75;4908449;29;20599;-74
2022/03/27 02:03:41;;;;;;;14.40;10.32;;;;;;;3.74;82.82;102107.81;4907553;29;20044;-74
2022/03/27 02:06:06;;;;;;;15.15;10.48;;;;;;;3.73;83.15;102106.06;4907255;29;20051;-74
2022/03/27 02:08:33;;;;;;;15.13;9.93;;;;;;;3.71;83.48;102103.34;4908846;29;20032;-74
2022/03/27 02:10:58;;;;;;;14.82;9.18;;;;;;;3.72;83.84;102109.47;4901984;29;20032;-74
2022/03/27 02:13:24;;;;;;;14.68;9.65;;;;;;;3.72;83.63;102105.16;4908208;29;20043;-74
2022/03/27 02:15:50;;;;;;;12.98;8.25;;;;;;;3.71;84.08;102110.28;4907489;29;20041;-74
2022/03/27 02:18:16;;;;;;;14.75;9.05;;;;;;;3.71;83.26;102107.69;4906488;29;20096;-74
2022/03/27 02:20:44;;;;;;;12.85;8.38;;;;;;;3.70;83.02;102108.53;4908997;29;20032;-74
2022/03/27 02:23:10;;;;;;;15.43;9.63;;;;;;;3.64;82.81;102110.81;4906506;29;20128;-74
2022/03/27 02:25:36;;;;;;;11.63;8.18;;;;;;;3.56;83.36;102110.47;4965640;23;20080;-76
2022/03/27 02:28:02;;;;;;;13.98;9.00;;;;;;;3.56;83.19;102114.78;4935915;29;20090;-76
2022/03/27 02:30:28;;;;;;;16.05;9.23;;;;;;;3.53;83.44;102114.66;4936652;29;20122;-77
2022/03/27 02:32:53;;;;;;;12.45;7.32;;;;;;;3.48;82.98;102117.03;4951203;28;20086;-77
2022/03/27 02:35:18;;;;;;;12.88;8.15;;;;;;;3.40;82.22;102106.22;4936474;29;20067;-76
2022/03/27 02:37:44;;;;;;;11.98;7.47;;;;;;;3.29;81.62;102112.66;4936378;29;20044;-76
2022/03/27 02:40:09;;;;;;;13.80;8.93;;;;;;;3.18;80.93;102111.25;4936269;29;20138;-77
2022/03/27 02:42:35;;;;;;;12.63;8.75;;;;;;;3.01;80.60;102120.81;4935866;29;20031;-77
2022/03/27 02:45:00;;;;;;;13.00;9.15;;;;;;;2.87;80.94;102114.91;4936653;29;20039;-76
2022/03/27 02:47:25;;;;;;;11.63;8.10;;;;;;;2.88;81.76;102121.91;4936307;29;20040;-77
2022/03/27 02:49:50;;;;;;;11.68;7.35;;;;;;;2.92;82.33;102128.19;4936314;29;20067;-76
2022/03/27 02:52:16;;;;;;;10.75;6.57;;;;;;;2.97;82.35;102131.94;4931205;29;20043;-76
2022/03/27 02:54:41;;;;;;;9.65;6.13;;;;;;;2.97;82.45;102135.44;4927267;29;20047;-77
2022/03/27 02:57:07;;;;;;;10.48;6.13;;;;;;;2.97;81.99;102130.22;4933748;29;20038;-77
2022/03/27 02:59:32;;;;;;;11.23;7.40;;;;;;;2.98;81.92;102134.59;4936160;29;20050;-76
2022/03/27 03:02:00;;;;;;;12.98;7.88;;;;;;;2.98;81.53;102128.50;4966926;28;20067;-77
2022/03/27 03:04:26;;;;;;;12.73;8.50;;;;;;;2.96;81.88;102127.50;4931303;29;20074;-77
2022/03/27 03:06:53;;;;;;;14.77;8.75;;;;;;;2.94;81.30;102129.19;4934170;29;20073;-77
2022/03/27 03:09:18;;;;;;;11.60;8.07;;;;;;;2.91;80.97;102132.53;4934467;29;20087;-76
2022/03/27 03:11:44;;;;;;;14.10;9.75;;;;;;;2.87;82.10;102135.78;4934745;29;20190;-77
2022/03/27 03:14:09;;;;;;;13.18;8.45;;;;;;;2.81;82.46;102141.59;4935592;29;20095;-76
2022/03/27 03:16:37;;;;;;;11.60;7.30;;;;;;;2.75;81.83;102140.34;4935714;29;20036;-77
2022/03/27 03:19:04;;;;;;;9.60;6.40;;;;;;;2.70;81.84;102139.22;4935474;29;20624;-77
2022/03/27 03:21:30;;;;;;;10.40;6.88;;;;;;;2.65;81.70;102136.41;4935355;29;20046;-77
2022/03/27 03:23:55;;;;;;;12.35;7.70;;;;;;;2.66;81.56;102137.28;4931313;29;20413;-76
2022/03/27 03:26:22;;;;;;;11.68;7.70;;;;;;;2.64;82.31;102132.00;4930699;29;20103;-77
2022/03/27 03:28:47;;;;;;;9.52;6.90;;;;;;;2.58;82.21;102139.50;4926331;29;20040;-77
2022/03/27 03:31:12;;;;;;;9.95;6.95;;;;;;;2.50;82.63;102148.63;4931255;29;20399;-77
2022/03/27 03:33:37;;;;;;;10.20;6.82;;;;;;;2.52;82.40;102147.91;4933888;29;20487;-76
2022/03/27 03:36:03;;;;;;;11.00;7.53;;;;;;;2.52;82.08;102142.69;4935504;29;20043;-76
2022/03/27 03:38:28;;;;;;;9.40;6.80;;;;;;;2.49;82.18;102145.13;4966334;28;20051;-77
2022/03/27 03:40:54;;;;;;;10.60;7.90;;;;;;;2.44;81.95;102143.06;4934950;29;20074;-77
2022/03/27 03:43:20;;;;;;;10.43;7.53;;;;;;;2.40;82.32;102142.91;4966067;28;20042;-76
2022/03/27 03:45:46;;;;;;;8.88;6.78;;;;;;;2.38;82.04;102148.88;4931456;29;20040;-76
2022/03/27 03:48:12;;;;;;;9.57;7.07;;;;;;;2.34;83.31;102149.53;4935335;29;20063;-76
2022/03/27 03:50:37;;;;;;;13.95;8.40;;;;;;;2.29;82.61;102156.22;4965975;28;20126;-76
2022/03/27 03:53:03;;;;;;;10.05;7.10;;;;;;;2.21;82.47;102154.91;4965544;28;20115;-77
2022/03/27 03:55:29;;;;;;;11.93;8.00;;;;;;;2.04;83.74;102162.69;4934874;29;20098;-77
2022/03/27 03:57:56;;;;;;;12.82;8.32;;;;;;;1.96;83.70;102151.88;4935241;29;20126;-77
2022/03/27 04:00:22;;;;;;;13.18;7.88;;;;;;;1.95;84.15;102160.47;4935258;29;20043;-77
2022/03/27 04:02:48;;;;;;;14.13;9.68;;;;;;;1.90;84.14;102161.94;4934310;29;20047;-76
2022/03/27 04:05:13;;;;;;;17.23;10.32;;;;;;;1.93;84.69;102158.59;4965433;28;20110;-77
2022/03/27 04:07:39;;;;;;;15.98;9.82;;;;;;;1.95;84.52;102157.88;4934689;29;20047;-77
2022/03/27 04:10:04;;;;;;;15.98;10.48;;;;;;;1.99;83.95;102156.31;4934826;29;20047;-76
2022/03/27 04:12:31;;;;;;;15.63;9.75;;;;;;;2.00;84.09;102154.66;4934580;29;20491;-76
2022/03/27 04:14:56;;;;;;;16.67;10.60;;;;;;;1.96;84.36;102156.16;4928851;29;20034;-76
2022/03/27 04:17:21;;;;;;;16.13;10.20;;;;;;;1.95;84.60;102164.81;4934640;29;20498;-76
2022/03/27 04:19:47;;;;;;;17.10;10.88;;;;;;;1.90;84.46;102158.44;4934899;29;20036;-76
2022/03/27 04:22:12;;;;;;;17.27;10.68;;;;;;;1.86;84.45;102157.38;4934573;29;20054;-77
2022/03/27 04:24:38;;;;;;;14.93;9.40;;;;;;;1.87;84.73;102160.88;4935231;29;20043;-76
2022/03/27 04:27:03;;;;;;;25.10;10.20;;;;;;;1.88;83.96;102160.94;4965395;28;20043;-76
2022/03/27 04:29:29;;;;;;;16.80;9.57;;;;;;;1.79;84.91;102157.84;4934610;29;20562;-76
2022/03/27 04:31:54;;;;;;;15.05;10.00;;;;;;;1.71;83.85;102162.63;4934056;29;20061;-77
2022/03/27 04:34:19;;;;;;;14.10;8.93;;;;;;;1.62;83.53;102161.22;4935524;29;20039;-76
2022/03/27 04:36:45;;;;;;;12.93;8.30;;;;;;;1.57;84.63;102168.75;4938245;29;20031;-77
2022/03/27 04:39:10;;;;;;;10.70;7.72;;;;;;;1.46;86.45;102168.13;4938423;29;20048;-76
2022/03/27 04:41:36;;;;;;;9.98;6.40;;;;;;;1.43;86.37;102159.28;4938122;29;20044;-77
2022/03/27 04:44:03;;;;;;;9.35;5.78;;;;;;;1.46;86.30;102170.75;4936810;29;20075;-77
2022/03/27 04:46:29;;;;;;;10.65;6.22;;;;;;;1.44;86.30;102172.38;4938185;29;20047;-76
2022/03/27 04:48:54;;;;;;;9.90;6.68;;;;;;;1.41;85.66;102173.91;4938215;29;20043;-76
2022/03/27 04:51:19;;;;;;;18.02;6.30;;;;;;;1.47;84.71;102169.06;4937986;29;20094;-76
2022/03/27 04:53:45;;;;;;;11.02;6.55;;;;;;;1.49;84.13;102165.75;4968805;28;20039;-76
2022/03/27 04:56:10;;;;;;;8.88;6.15;;;;;;;1.53;83.30;102166.81;4937911;29;20130;-77
2022/03/27 04:58:36;;;;;;;13.25;7.10;;;;;;;1.53;82.75;102172.91;4968663;28;20096;-76
2022/03/27 05:01:01;;;;;;;37.08;8.27;;;;;;;1.47;82.66;102171.66;4937553;29;20047;-76
2022/03/27 05:03:26;;;;;;;9.35;6.53;;;;;;;1.40;83.52;102170.41;4937752;29;20510;-76
2022/03/27 05:05:52;;;;;;;11.10;6.60;;;;;;;1.42;83.20;102173.09;4968623;28;20484;-76
2022/03/27 05:08:17;;;;;;;9.05;6.28;;;;;;;1.39;83.28;102178.09;4937849;29;20507;-77
2022/03/27 05:10:43;;;;;;;9.77;7.10;;;;;;;1.36;83.84;102167.53;4952056;29;20521;-76
2022/03/27 05:13:08;;;;;;;8.48;6.18;;;;;;;1.34;84.76;102177.88;4937636;29;20169;-76
2022/03/27 05:15:34;;;;;;;10.77;6.85;;;;;;;1.43;84.38;102169.69;4952458;28;20039;-77
2022/03/27 05:18:00;;;;;;;9.68;6.65;;;;;;;1.51;84.07;102169.31;4963093;28;20083;-76
2022/03/27 05:20:28;;;;;;;10.10;6.65;;;;;;;1.53;85.03;102164.19;4936910;29;20423;-76
2022/03/27 05:22:54;;;;;;;10.35;6.45;;;;;;;1.60;84.77;102171.56;4934002;29;20031;-76
2022/03/27 05:25:20;;;;;;;9.18;6.57;;;;;;;1.70;85.01;102173.88;4936166;29;20036;-76
2022/03/27 05:27:50;;;;;;;18.10;6.80;;;;;;;1.72;85.87;102174.81;4937446;29;20039;-76
2022/03/27 05:30:21;;;;;;;11.48;6.90;;;;;;;1.82;85.27;102176.25;4937661;29;20482;-76
2022/03/27 05:32:47;;;;;;;14.07;7.95;;;;;;;1.81;84.99;102183.94;4968130;28;20122;-77
2022/03/27 05:35:12;;;;;;;11.65;8.55;;;;;;;1.78;84.88;102182.06;4937441;29;20111;-76
2022/03/27 05:37:38;;;;;;;11.75;7.18;;;;;;;1.78;85.00;102183.78;4967961;28;20546;-76
2022/03/27 05:40:06;;;;;;;9.23;6.22;;;;;;;1.83;85.88;102182.34;4933653;29;20039;-77
2022/03/27 05:42:32;;;;;;;10.02;6.90;;;;;;;2.00;85.98;102185.91;4937163;29;20091;-76
2022/03/27 05:44:57;;;;;;;14.32;6.38;;;;;;;2.17;84.54;102199.03;4937455;29;20466;-77
2022/03/27 05:47:22;;;;;;;11.10;7.13;;;;;;;2.24;84.77;102191.53;4936804;29;20031;-76
2022/03/27 05:49:48;;;;;;;11.60;7.07;;;;;;;2.29;84.89;102190.09;4937386;29;20127;-77
2022/03/27 05:52:14;;;;;;;9.38;6.35;;;;;;;2.42;85.01;102182.09;4937966;29;20043;-77
2022/03/27 05:54:39;;;;;;;8.23;5.20;;;;;;;2.56;85.13;102190.66;4969218;28;20390;-77
2022/03/27 05:57:05;;;;;;;8.10;5.13;;;;;;;2.71;84.67;102182.75;4969576;28;20031;-77
2022/03/27 05:59:30;;;;;;;7.68;4.30;;;;;;;2.91;84.15;102176.84;4939954;29;20063;-77
2022/03/27 06:01:55;;;;;;;5.55;3.97;;;;;;;3.13;83.88;102180.56;4939345;29;20494;-77
2022/03/27 06:04:21;;;;;;;7.47;4.75;;;;;;;3.27;82.93;102174.28;4938986;29;20067;-77
2022/03/27 06:06:46;;;;;;;7.38;4.00;;;;;;;3.37;83.37;102179.16;4939564;29;20039;-77
2022/03/27 06:09:11;;;;;;;6.72;3.58;;;;;;;3.51;82.59;102172.91;4939451;29;20038;-77
2022/03/27 06:11:37;;;;;;;8.95;5.25;;;;;;;3.48;82.65;102174.47;4939347;29;20134;-77
2022/03/27 06:14:02;;;;;;;7.57;4.78;;;;;;;3.60;82.89;102171.56;4971035;28;20563;-77
2022/03/27 06:16:27;;;;;;;10.73;5.63;;;;;;;3.70;82.68;102169.47;4941308;29;20707;-77
2022/03/27 06:18:52;;;;;;;26.63;8.55;;;;;;;3.91;82.61;102169.59;4972120;28;20077;-77
2022/03/27 06:21:18;;;;;;;13.90;7.18;;;;;;;4.03;82.38;102165.75;4971772;28;20044;-77
2022/03/27 06:23:43;;;;;;;14.57;7.75;;;;;;;4.13;82.40;102170.59;4941229;29;20039;-77
2022/03/27 06:26:08;;;;;;;36.83;10.45;;;;;;;4.26;82.25;102166.81;4940782;29;20042;-77
2022/03/27 06:28:34;;;;;;;36.05;8.80;;;;;;;4.39;81.81;102162.22;4940315;29;20039;-77
2022/03/27 06:30:59;;;;;;;35.45;9.23;;;;;;;4.38;82.55;102165.66;4939467;29;20028;-77
2022/03/27 06:33:24;;;;;;;44.33;10.82;;;;;;;4.52;83.14;102168.00;4940663;29;20047;-77
2022/03/27 06:35:50;;;;;;;69.78;12.30;;;;;;;4.59;82.94;102170.06;4940595;29;20035;-77
2022/03/27 06:38:17;;;;;;;20.63;10.20;;;;;;;4.57;83.03;102171.72;4941466;29;20043;-77
2022/03/27 06:40:42;;;;;;;23.92;10.65;;;;;;;4.72;82.88;102179.38;4941084;29;20052;-77
2022/03/27 06:43:07;;;;;;;15.77;10.27;;;;;;;4.84;82.69;102178.16;4940617;29;20126;-77
2022/03/27 06:45:33;;;;;;;18.10;10.65;;;;;;;4.93;82.42;102176.78;4941127;29;20035;-77
2022/03/27 06:47:58;;;;;;;20.90;10.20;;;;;;;4.96;82.10;102179.53;4941300;29;20099;-77
2022/03/27 06:50:24;;;;;;;16.88;9.25;;;;;;;4.99;82.55;102179.66;4940265;29;20047;-77
2022/03/27 06:52:50;;;;;;;15.07;9.27;;;;;;;5.12;82.34;102184.59;4939762;29;20036;-77
2022/03/27 06:55:16;;;;;;;12.90;8.45;;;;;;;5.30;81.87;102171.38;4939970;29;20043;-77
2022/03/27 06:57:42;;;;;;;11.57;7.88;;;;;;;5.41;81.30;102161.34;4939143;29;20138;-77
2022/03/27 07:03:03;;;;;;;9.70;6.78;;;;;;;5.45;81.83;102176.38;4938735;29;20040;-77
2022/03/27 07:05:39;;;;;;;7.97;5.78;;;;;;;5.57;81.97;102168.97;4940786;29;20122;-77
2022/03/27 07:08:06;;;;;;;9.18;6.78;;;;;;;5.72;81.29;102173.97;4941062;29;20054;-77
2022/03/27 07:10:31;;;;;;;9.07;6.55;;;;;;;5.81;80.73;102179.53;4941369;29;20035;-77
2022/03/27 07:12:57;;;;;;;8.43;6.13;;;;;;;5.90;80.48;102176.41;4941209;29;20031;-77
2022/03/27 07:15:24;;;;;;;7.15;5.18;;;;;;;5.94;80.58;102173.09;4940857;29;20095;-77
2022/03/27 07:17:51;;;;;;;8.25;6.18;;;;;;;6.02;80.33;102190.00;4940837;29;20078;-77
2022/03/27 07:20:25;;;;;;;7.85;5.95;;;;;;;6.12;79.98;102189.53;4940458;29;20054;-77
2022/03/27 07:22:53;;;;;;;7.13;5.72;;;;;;;6.21;80.13;102194.25;4937557;29;20112;-77
2022/03/27 07:25:21;;;;;;;8.60;6.30;;;;;;;6.32;79.90;102187.69;4940460;29;20112;-77
2022/03/27 07:27:47;;;;;;;7.72;5.97;;;;;;;6.41;80.40;102184.50;4939484;29;20078;-77
2022/03/27 07:30:12;;;;;;;9.00;6.45;;;;;;;6.51;80.25;102185.75;4940590;29;20043;-77
2022/03/27 07:32:39;;;;;;;10.60;7.45;;;;;;;6.63;80.33;102190.53;4940762;29;20039;-77
2022/03/27 07:35:06;;;;;;;9.38;7.40;;;;;;;6.76;80.54;102190.16;4939487;29;20043;-77
2022/03/27 07:37:34;;;;;;;11.27;8.32;;;;;;;6.87;81.01;102186.19;4940610;29;20036;-77
2022/03/27 07:40:03;;;;;;;12.60;8.65;;;;;;;6.98;80.72;102182.19;4940136;29;20039;-77
2022/03/27 07:42:29;;;;;;;17.30;9.15;;;;;;;7.09;81.21;102190.44;4939844;29;20038;-77
2022/03/27 07:44:54;;;;;;;12.00;8.65;;;;;;;7.22;81.25;102190.03;4935215;29;20694;-77
2022/03/27 07:47:20;;;;;;;15.10;9.65;;;;;;;7.33;80.84;102182.50;4939953;29;20035;-77
2022/03/27 07:49:45;;;;;;;12.10;9.48;;;;;;;7.43;81.21;102189.84;4940431;29;20046;-77
2022/03/27 07:52:10;;;;;;;11.63;9.00;;;;;;;7.56;81.33;102185.00;4940508;29;20039;-77
2022/03/27 07:54:36;;;;;;;14.90;10.30;;;;;;;7.71;81.53;102198.66;4940204;29;20046;-77
2022/03/27 07:57:01;;;;;;;12.88;10.00;;;;;;;7.83;81.09;102185.91;4954744;29;20414;-77
2022/03/27 07:59:26;;;;;;;13.30;10.38;;;;;;;7.94;81.44;102182.69;4940145;29;20039;-77
2022/03/27 08:01:52;;;;;;;14.30;11.32;;;;;;;8.07;81.09;102190.16;4938173;29;20047;-77
2022/03/27 08:04:17;;;;;;;12.23;9.82;;;;;;;8.20;81.13;102186.13;4940373;29;20071;-77
2022/03/27 08:06:43;;;;;;;14.88;11.60;;;;;;;8.31;80.93;102190.88;4940486;29;20040;-77
2022/03/27 08:09:08;;;;;;;13.55;10.98;;;;;;;8.47;81.13;102196.63;4939526;29;20103;-77
2022/03/27 08:11:36;;;;;;;15.15;10.90;;;;;;;8.60;80.81;102193.50;4970412;28;20139;-77
2022/03/27 08:14:02;;;;;;;13.63;10.77;;;;;;;8.69;80.34;102196.38;4940435;29;20048;-77
2022/03/27 08:16:27;;;;;;;12.98;10.63;;;;;;;8.82;80.15;102194.09;4940668;29;20047;-77
2022/03/27 08:18:53;;;;;;;13.15;10.35;;;;;;;8.95;80.25;102196.19;4939744;29;20055;-77
2022/03/27 08:21:19;;;;;;;14.57;10.50;;;;;;;9.07;79.69;102196.53;4940273;29;20047;-77
2022/03/27 08:23:44;;;;;;;13.48;10.80;;;;;;;9.19;79.56;102191.56;4938899;29;20047;-77
2022/03/27 08:28:53;;;;;;;16.45;12.43;;;;;;;9.42;78.94;102199.19;4951049;23;20493;-76
2022/03/27 08:31:19;;;;;;;17.33;13.02;;;;;;;9.47;78.75;102192.28;4914305;29;20044;-76
2022/03/27 08:33:46;;;;;;;17.98;11.93;;;;;;;9.63;77.60;102194.44;4914893;29;20036;-75
2022/03/27 08:36:12;;;;;;;17.60;13.52;;;;;;;9.65;77.57;102195.38;4922129;29;20036;-75
2022/03/27 08:38:37;;;;;;;18.23;14.02;;;;;;;9.54;77.72;102196.00;4914620;29;20784;-76
2022/03/27 08:41:04;;;;;;;15.00;12.10;;;;;;;9.78;77.21;102188.66;4914641;29;20114;-76
2022/03/27 08:43:32;;;;;;;15.27;11.68;;;;;;;9.97;76.39;102182.06;4914675;29;20131;-76
2022/03/27 08:45:58;;;;;;;13.45;11.55;;;;;;;10.14;76.25;102179.81;4913540;29;20107;-75
2022/03/27 08:48:29;;;;;;;13.70;10.35;;;;;;;10.30;75.77;102178.44;4914681;29;20384;-76
2022/03/27 08:51:20;;;;;;;14.82;11.23;;;;;;;10.43;74.27;102185.75;4914566;29;20048;-76
2022/03/27 08:54:11;;;;;;;15.50;12.30;;;;;;;10.59;73.31;102191.34;4914380;29;20123;-75
2022/03/27 08:56:37;;;;;;;17.08;11.63;;;;;;;10.71;73.01;102183.63;4911453;29;20392;-75
2022/03/27 08:59:07;;;;;;;14.20;11.27;;;;;;;10.82;71.50;102182.13;4914565;29;20050;-75
2022/03/27 09:01:32;;;;;;;13.48;10.80;;;;;;;10.94;71.15;102184.09;4914560;29;20032;-76
2022/03/27 09:03:58;;;;;;;13.20;10.27;;;;;;;11.04;70.40;102175.47;4914537;29;20402;-76
2022/03/27 09:06:25;;;;;;;13.93;11.18;;;;;;;11.00;69.97;102167.47;4914552;29;20036;-76
2022/03/27 09:08:51;;;;;;;14.60;11.27;;;;;;;11.12;70.08;102176.50;4914500;29;20032;-76
2022/03/27 09:11:18;;;;;;;14.18;11.43;;;;;;;11.21;67.56;102169.59;4914309;29;20052;-76
2022/03/27 09:13:49;;;;;;;14.32;10.55;;;;;;;11.38;67.40;102173.41;4914505;29;20099;-74
2022/03/27 09:16:15;;;;;;;13.77;11.55;;;;;;;11.54;67.84;102171.91;4914453;29;20051;-73
2022/03/27 09:18:53;;;;;;;16.13;12.60;;;;;;;11.54;66.11;102163.97;4914445;29;20130;-73
2022/03/27 09:21:21;;;;;;;15.50;12.00;;;;;;;11.52;64.69;102169.22;4912144;29;20040;-74
2022/03/27 09:23:53;;;;;;;15.93;12.68;;;;;;;11.59;65.43;102159.66;4917865;29;20499;-73
2022/03/27 09:26:20;;;;;;;;;;;;;;;11.69;64.88;102160.69;4918226;29;20040;-73
2022/03/27 09:28:48;;;;;;;16.90;13.02;;;;;;;11.82;63.66;102158.25;4917519;29;20389;-75
2022/03/27 09:31:13;;;;;;;18.88;12.73;;;;;;;11.98;63.40;102153.22;4917602;29;20040;-76
2022/03/27 09:33:48;;;;;;;16.45;12.52;;;;;;;12.14;63.63;102155.19;4917832;29;20119;-75
2022/03/27 09:36:25;;;;;;;20.23;14.73;;;;;;;12.07;61.76;102151.56;4915359;29;20036;-75
2022/03/27 09:39:19;;;;;;;16.90;13.70;;;;;;;12.00;61.22;102159.44;4909224;29;20044;-73
2022/03/27 09:41:54;;;;;;;16.40;13.13;;;;;;;12.09;62.44;102151.59;4914469;29;20044;-73
2022/03/27 09:44:22;;;;;;;16.83;13.18;;;;;;;12.31;62.61;102155.41;4917579;29;20031;-73
2022/03/27 09:47:14;;;;;;;18.52;14.18;;;;;;;12.55;60.18;102145.97;4914186;29;20414;-73
2022/03/27 09:49:49;;;;;;;15.83;12.73;;;;;;;12.70;60.29;102152.34;4912454;29;20052;-73
2022/03/27 09:52:16;;;;;;;15.90;12.35;;;;;;;12.84;59.72;102147.22;4917213;29;20040;-73
2022/03/27 09:54:50;;;;;;;15.85;12.27;;;;;;;12.84;57.66;102139.25;4914063;29;20051;-73
2022/03/27 09:57:18;;;;;;;15.23;11.90;;;;;;;12.83;58.14;102137.47;4917253;29;20047;-74
2022/03/27 09:59:45;;;;;;;15.32;11.65;;;;;;;12.79;56.45;102140.09;4917132;29;20091;-73
2022/03/27 10:02:22;;;;;;;15.55;12.18;;;;;;;12.93;56.85;102135.81;4912825;29;20044;-73
2022/03/27 10:04:55;;;;;;;14.25;11.35;;;;;;;13.12;56.77;102131.56;4916456;29;20040;-74
2022/03/27 10:07:25;;;;;;;16.77;12.63;;;;;;;13.06;55.08;102132.38;4914648;29;20516;-74
2022/03/27 10:09:52;;;;;;;16.38;12.02;;;;;;;13.21;55.92;102136.06;4917081;29;20044;-73
2022/03/27 10:12:17;;;;;;;15.65;12.25;;;;;;;13.41;56.17;102137.13;4911557;29;20381;-74
2022/03/27 10:14:44;;;;;;;15.07;11.77;;;;;;;13.58;55.18;102130.19;4916966;29;20039;-73
2022/03/27 10:17:10;;;;;;;14.65;12.23;;;;;;;13.58;52.86;102119.56;4916926;29;20492;-74
2022/03/27 10:19:45;;;;;;;15.15;12.00;;;;;;;13.70;53.26;102128.50;4916842;29;20568;-73
2022/03/27 10:22:12;;;;;;;14.73;11.15;;;;;;;13.73;52.95;102126.75;4913827;29;20044;-74
2022/03/27 10:24:39;;;;;;;15.77;11.32;;;;;;;13.65;49.48;102117.88;4916883;29;20658;-73
2022/03/27 10:27:05;;;;;;;14.98;10.80;;;;;;;13.59;50.06;102113.38;4916657;29;20055;-74
2022/03/27 10:29:31;;;;;;;17.40;10.63;;;;;;;13.68;50.11;102109.03;4912941;29;20119;-73
2022/03/27 10:31:59;;;;;;;13.45;10.07;;;;;;;13.81;49.30;102105.59;4916265;29;20547;-73
2022/03/27 10:34:25;;;;;;;11.98;9.40;;;;;;;13.95;47.78;102100.34;4916673;29;20124;-73
2022/03/27 10:36:59;;;;;;;13.55;10.50;;;;;;;14.10;46.52;102107.50;4916643;29;20509;-74
2022/03/27 10:39:35;;;;;;;14.55;9.70;;;;;;;14.10;43.12;102103.06;4918431;29;20052;-73
2022/03/27 10:42:12;;;;;;;11.70;8.65;;;;;;;14.15;43.70;102095.13;4916176;29;20506;-73
2022/03/27 10:44:44;;;;;;;13.85;8.60;;;;;;;14.25;44.18;102096.91;4916488;29;20126;-73
2022/03/27 10:47:20;;;;;;;10.70;7.40;;;;;;;14.32;42.65;102098.72;4916475;29;20055;-74
2022/03/27 10:50:01;;;;;;;11.60;7.63;;;;;;;14.36;40.76;102097.84;4916339;29;20036;-73
2022/03/27 10:52:31;;;;;;;13.90;9.30;;;;;;;14.36;42.63;102091.66;4913704;29;20499;-74
2022/03/27 10:55:07;;;;;;;14.48;10.50;;;;;;;14.34;43.96;102085.44;4916287;29;20487;-75
2022/03/27 10:57:35;;;;;;;17.05;11.40;;;;;;;14.41;45.27;102082.81;4913856;29;20055;-76
2022/03/27 11:00:03;;;;;;;14.15;11.07;;;;;;;14.63;45.82;102088.22;4922344;29;20036;-76
2022/03/27 11:02:41;;;;;;;14.55;10.40;;;;;;;14.84;44.82;102084.69;4915538;29;20032;-76
2022/03/27 11:05:06;;;;;;;15.95;12.30;;;;;;;14.99;45.18;102070.53;4916113;29;20047;-76
2022/03/27 11:07:32;;;;;;;12.63;9.88;;;;;;;15.03;44.08;102066.97;4916036;29;20047;-77
2022/03/27 11:09:57;;;;;;;12.35;9.10;;;;;;;15.15;43.67;102074.97;4915984;29;20381;-74
2022/03/27 11:12:22;;;;;;;11.07;8.15;;;;;;;15.10;42.42;102068.75;4915675;29;20411;-74
2022/03/27 11:15:05;;;;;;;10.90;6.93;;;;;;;15.12;39.43;102074.97;4915864;29;20055;-73
2022/03/27 11:17:42;;;;;;;10.75;7.30;;;;;;;15.16;39.27;102068.75;4913401;29;20040;-73
2022/03/27 11:20:23;;;;;;;10.73;6.97;;;;;;;15.29;39.70;102067.84;4915845;29;20047;-74
2022/03/27 11:22:59;;;;;;;10.70;7.05;;;;;;;15.44;39.98;102052.75;4915502;29;20047;-73
2022/03/27 11:25:26;;;;;;;12.73;7.40;;;;;;;15.51;40.17;102055.41;4907905;29;20103;-74
2022/03/27 11:27:54;;;;;;;10.60;7.85;;;;;;;15.67;39.91;102055.38;4915469;29;20039;-74
2022/03/27 11:30:19;;;;;;;9.95;6.72;;;;;;;15.77;39.28;102050.03;4915456;29;20051;-73